sensor_id;sensor_type;location;lat;lon;timestamp;P1;durP1;ratioP1;P2;durP2;ratioP2
66384;SDS011;53426;55.872;37.462;2023-05-07T00:01:15;5.57;;;4.30;;
66384;SDS011;53426;55.872;37.462;2023-05-07T00:03:41;7.15;;;4.85;;
66384;SDS011;53426;55.872;37.462;2023-05-07T00:06:07;10.85;;;4.88;;
66384;SDS011;53426;55.872;37.462;2023-05-07T00:08:33;7.85;;;4.47;;
66384;SDS011;53426;55.872;37.462;2023-05-07T00:10:59;5.03;;;4.47;;
66384;SDS011;53426;55.872;37.462;2023-05-07T00:13:25;6.05;;;4.30;;
66384;SDS011;53426;55.872;37.462;2023-05-07T00:15:51;6.28;;;4.43;;
66384;SDS011;53426;55.872;37.462;2023-05-07T00:18:17;5.20;;;4.68;;
66384;SDS011;53426;55.872;37.462;2023-05-07T00:20:46;6.68;;;5.15;;
66384;SDS011;53426;55.872;37.462;2023-05-07T00:23:12;7.60;;;4.97;;
66384;SDS011;53426;55.872;37.462;2023-05-07T00:25:38;6.53;;;5.15;;
66384;SDS011;53426;55.872;37.462;2023-05-07T00:28:04;5.05;;;4.57;;
66384;SDS011;53426;55.872;37.462;2023-05-07T00:30:29;6.13;;;4.50;;
66384;SDS011;53426;55.872;37.462;2023-05-07T00:32:56;6.68;;;4.82;;
66384;SDS011;53426;55.872;37.462;2023-05-07T00:35:22;6.13;;;4.72;;
66384;SDS011;53426;55.872;37.462;2023-05-07T00:37:48;6.28;;;4.35;;
66384;SDS011;53426;55.872;37.462;2023-05-07T00:40:14;5.10;;;4.65;;
66384;SDS011;53426;55.872;37.462;2023-05-07T00:42:40;7.50;;;4.70;;
66384;SDS011;53426;55.872;37.462;2023-05-07T00:45:07;5.13;;;4.57;;
66384;SDS011;53426;55.872;37.462;2023-05-07T00:47:33;8.85;;;4.40;;
66384;SDS011;53426;55.872;37.462;2023-05-07T00:49:59;8.00;;;5.20;;
66384;SDS011;53426;55.872;37.462;2023-05-07T00:52:25;5.38;;;4.40;;
66384;SDS011;53426;55.872;37.462;2023-05-07T00:54:52;5.90;;;4.45;;
66384;SDS011;53426;55.872;37.462;2023-05-07T00:57:18;5.07;;;4.57;;
66384;SDS011;53426;55.872;37.462;2023-05-07T00:59:46;12.80;;;4.60;;
66384;SDS011;53426;55.872;37.462;2023-05-07T01:02:14;5.15;;;4.30;;
66384;SDS011;53426;55.872;37.462;2023-05-07T01:04:39;5.28;;;4.35;;
66384;SDS011;53426;55.872;37.462;2023-05-07T01:07:05;7.03;;;4.93;;
66384;SDS011;53426;55.872;37.462;2023-05-07T01:09:33;6.47;;;4.97;;
66384;SDS011;53426;55.872;37.462;2023-05-07T01:12:01;9.77;;;5.55;;
66384;SDS011;53426;55.872;37.462;2023-05-07T01:14:28;9.35;;;5.78;;
66384;SDS011;53426;55.872;37.462;2023-05-07T01:16:55;8.30;;;6.70;;
66384;SDS011;53426;55.872;37.462;2023-05-07T01:19:23;9.65;;;7.07;;
66384;SDS011;53426;55.872;37.462;2023-05-07T01:21:51;12.55;;;7.85;;
66384;SDS011;53426;55.872;37.462;2023-05-07T01:24:23;12.68;;;7.93;;
66384;SDS011;53426;55.872;37.462;2023-05-07T01:26:49;11.73;;;8.75;;
66384;SDS011;53426;55.872;37.462;2023-05-07T01:29:17;11.65;;;8.80;;
66384;SDS011;53426;55.872;37.462;2023-05-07T01:31:43;13.23;;;8.88;;
66384;SDS011;53426;55.872;37.462;2023-05-07T01:34:13;14.65;;;9.50;;
66384;SDS011;53426;55.872;37.462;2023-05-07T01:36:42;15.00;;;8.68;;
66384;SDS011;53426;55.872;37.462;2023-05-07T01:39:09;16.20;;;9.40;;
66384;SDS011;53426;55.872;37.462;2023-05-07T01:41:36;15.07;;;9.55;;
66384;SDS011;53426;55.872;37.462;2023-05-07T01:44:03;27.75;;;8.82;;
66384;SDS011;53426;55.872;37.462;2023-05-07T01:46:30;16.52;;;7.50;;
66384;SDS011;53426;55.872;37.462;2023-05-07T01:48:58;12.52;;;6.65;;
66384;SDS011;53426;55.872;37.462;2023-05-07T01:51:26;8.82;;;6.22;;
66384;SDS011;53426;55.872;37.462;2023-05-07T01:53:52;10.93;;;6.00;;
66384;SDS011;53426;55.872;37.462;2023-05-07T01:56:19;8.02;;;5.30;;
66384;SDS011;53426;55.872;37.462;2023-05-07T01:58:46;5.40;;;4.60;;
66384;SDS011;53426;55.872;37.462;2023-05-07T02:01:13;7.35;;;5.10;;
66384;SDS011;53426;55.872;37.462;2023-05-07T02:03:41;10.32;;;6.80;;
66384;SDS011;53426;55.872;37.462;2023-05-07T02:06:14;8.15;;;6.00;;
66384;SDS011;53426;55.872;37.462;2023-05-07T02:08:41;9.00;;;7.20;;
66384;SDS011;53426;55.872;37.462;2023-05-07T02:11:09;11.15;;;7.68;;
66384;SDS011;53426;55.872;37.462;2023-05-07T02:13:39;9.93;;;7.63;;
66384;SDS011;53426;55.872;37.462;2023-05-07T02:16:06;10.93;;;7.38;;
66384;SDS011;53426;55.872;37.462;2023-05-07T02:18:33;12.02;;;7.40;;
66384;SDS011;53426;55.872;37.462;2023-05-07T02:21:00;11.68;;;8.50;;
66384;SDS011;53426;55.872;37.462;2023-05-07T02:23:26;15.45;;;7.60;;
66384;SDS011;53426;55.872;37.462;2023-05-07T02:25:54;10.27;;;7.57;;
66384;SDS011;53426;55.872;37.462;2023-05-07T02:28:22;8.68;;;7.05;;
66384;SDS011;53426;55.872;37.462;2023-05-07T02:30:56;10.82;;;7.13;;
66384;SDS011;53426;55.872;37.462;2023-05-07T02:33:24;8.95;;;6.90;;
66384;SDS011;53426;55.872;37.462;2023-05-07T02:35:50;12.60;;;7.25;;
66384;SDS011;53426;55.872;37.462;2023-05-07T02:38:17;8.60;;;6.82;;
66384;SDS011;53426;55.872;37.462;2023-05-07T02:40:45;23.00;;;6.55;;
66384;SDS011;53426;55.872;37.462;2023-05-07T02:43:10;9.75;;;6.95;;
66384;SDS011;53426;55.872;37.462;2023-05-07T02:45:43;13.95;;;7.50;;
66384;SDS011;53426;55.872;37.462;2023-05-07T02:48:13;6.97;;;6.25;;
66384;SDS011;53426;55.872;37.462;2023-05-07T02:50:39;9.27;;;6.40;;
66384;SDS011;53426;55.872;37.462;2023-05-07T02:53:05;9.48;;;6.45;;
66384;SDS011;53426;55.872;37.462;2023-05-07T02:55:30;14.32;;;6.38;;
66384;SDS011;53426;55.872;37.462;2023-05-07T02:57:57;8.35;;;6.35;;
66384;SDS011;53426;55.872;37.462;2023-05-07T03:00:24;7.57;;;6.63;;
66384;SDS011;53426;55.872;37.462;2023-05-07T03:03:10;8.25;;;6.20;;
66384;SDS011;53426;55.872;37.462;2023-05-07T03:05:37;9.98;;;6.25;;
66384;SDS011;53426;55.872;37.462;2023-05-07T03:08:03;7.50;;;6.07;;
66384;SDS011;53426;55.872;37.462;2023-05-07T03:10:32;10.35;;;6.45;;
66384;SDS011;53426;55.872;37.462;2023-05-07T03:12:58;8.82;;;5.60;;
66384;SDS011;53426;55.872;37.462;2023-05-07T03:15:25;6.85;;;5.60;;
66384;SDS011;53426;55.872;37.462;2023-05-07T03:17:52;6.88;;;5.57;;
66384;SDS011;53426;55.872;37.462;2023-05-07T03:20:18;6.07;;;5.15;;
66384;SDS011;53426;55.872;37.462;2023-05-07T03:22:44;6.03;;;5.28;;
66384;SDS011;53426;55.872;37.462;2023-05-07T03:25:10;11.27;;;5.22;;
66384;SDS011;53426;55.872;37.462;2023-05-07T03:27:37;7.05;;;4.78;;
66384;SDS011;53426;55.872;37.462;2023-05-07T03:30:04;6.05;;;4.75;;
66384;SDS011;53426;55.872;37.462;2023-05-07T03:32:35;8.95;;;4.70;;
66384;SDS011;53426;55.872;37.462;2023-05-07T03:35:12;4.93;;;4.45;;
66384;SDS011;53426;55.872;37.462;2023-05-07T03:37:39;10.32;;;4.78;;
66384;SDS011;53426;55.872;37.462;2023-05-07T03:40:06;9.25;;;4.13;;
66384;SDS011;53426;55.872;37.462;2023-05-07T03:42:41;4.97;;;4.13;;
66384;SDS011;53426;55.872;37.462;2023-05-07T03:45:08;5.75;;;3.80;;
66384;SDS011;53426;55.872;37.462;2023-05-07T03:47:38;4.07;;;3.70;;
66384;SDS011;53426;55.872;37.462;2023-05-07T03:50:06;5.20;;;4.22;;
66384;SDS011;53426;55.872;37.462;2023-05-07T03:52:32;4.47;;;3.67;;
66384;SDS011;53426;55.872;37.462;2023-05-07T03:55:00;3.42;;;3.10;;
66384;SDS011;53426;55.872;37.462;2023-05-07T03:57:29;3.38;;;3.08;;
66384;SDS011;53426;55.872;37.462;2023-05-07T03:59:57;4.97;;;3.47;;
66384;SDS011;53426;55.872;37.462;2023-05-07T04:02:25;4.80;;;3.13;;
66384;SDS011;53426;55.872;37.462;2023-05-07T04:04:52;4.78;;;2.95;;
66384;SDS011;53426;55.872;37.462;2023-05-07T04:07:18;8.38;;;3.15;;
66384;SDS011;53426;55.872;37.462;2023-05-07T04:09:49;3.00;;;2.70;;
66384;SDS011;53426;55.872;37.462;2023-05-07T04:12:15;3.13;;;2.65;;
66384;SDS011;53426;55.872;37.462;2023-05-07T04:14:41;4.30;;;3.00;;
66384;SDS011;53426;55.872;37.462;2023-05-07T04:17:07;3.85;;;2.60;;
66384;SDS011;53426;55.872;37.462;2023-05-07T04:19:37;4.18;;;2.50;;
66384;SDS011;53426;55.872;37.462;2023-05-07T04:22:03;3.25;;;2.40;;
66384;SDS011;53426;55.872;37.462;2023-05-07T04:24:31;2.70;;;2.17;;
66384;SDS011;53426;55.872;37.462;2023-05-07T04:27:00;9.60;;;2.42;;
66384;SDS011;53426;55.872;37.462;2023-05-07T04:29:25;3.20;;;2.28;;
66384;SDS011;53426;55.872;37.462;2023-05-07T04:31:51;2.95;;;2.30;;
66384;SDS011;53426;55.872;37.462;2023-05-07T04:34:17;3.55;;;2.50;;
66384;SDS011;53426;55.872;37.462;2023-05-07T04:36:43;5.10;;;2.25;;
66384;SDS011;53426;55.872;37.462;2023-05-07T04:39:11;4.43;;;2.05;;
66384;SDS011;53426;55.872;37.462;2023-05-07T04:41:44;2.50;;;2.30;;
66384;SDS011;53426;55.872;37.462;2023-05-07T04:44:10;3.08;;;1.85;;
66384;SDS011;53426;55.872;37.462;2023-05-07T04:46:45;4.05;;;1.80;;
66384;SDS011;53426;55.872;37.462;2023-05-07T04:49:11;2.30;;;2.10;;
66384;SDS011;53426;55.872;37.462;2023-05-07T04:51:37;3.83;;;2.13;;
66384;SDS011;53426;55.872;37.462;2023-05-07T04:54:05;2.10;;;1.98;;
66384;SDS011;53426;55.872;37.462;2023-05-07T04:56:31;2.78;;;2.30;;
66384;SDS011;53426;55.872;37.462;2023-05-07T04:58:59;2.20;;;2.00;;
66384;SDS011;53426;55.872;37.462;2023-05-07T05:01:25;2.00;;;1.90;;
66384;SDS011;53426;55.872;37.462;2023-05-07T05:06:42;2.03;;;1.88;;
66384;SDS011;53426;55.872;37.462;2023-05-07T05:09:10;6.10;;;2.05;;
66384;SDS011;53426;55.872;37.462;2023-05-07T05:11:36;2.10;;;2.00;;
66384;SDS011;53426;55.872;37.462;2023-05-07T05:14:02;2.72;;;2.03;;
66384;SDS011;53426;55.872;37.462;2023-05-07T05:16:28;1.90;;;1.80;;
66384;SDS011;53426;55.872;37.462;2023-05-07T05:18:54;3.72;;;1.80;;
66384;SDS011;53426;55.872;37.462;2023-05-07T05:21:20;2.75;;;1.77;;
66384;SDS011;53426;55.872;37.462;2023-05-07T05:23:50;3.80;;;1.73;;
66384;SDS011;53426;55.872;37.462;2023-05-07T05:26:19;6.22;;;1.80;;
66384;SDS011;53426;55.872;37.462;2023-05-07T05:28:47;2.17;;;1.90;;
66384;SDS011;53426;55.872;37.462;2023-05-07T05:31:16;2.20;;;2.00;;
66384;SDS011;53426;55.872;37.462;2023-05-07T05:36:31;3.45;;;1.80;;
66384;SDS011;53426;55.872;37.462;2023-05-07T05:38:58;6.30;;;1.70;;
66384;SDS011;53426;55.872;37.462;2023-05-07T05:41:24;1.75;;;1.65;;
66384;SDS011;53426;55.872;37.462;2023-05-07T05:43:50;1.70;;;1.60;;
66384;SDS011;53426;55.872;37.462;2023-05-07T05:46:18;1.65;;;1.55;;
66384;SDS011;53426;55.872;37.462;2023-05-07T05:48:44;1.80;;;1.70;;
66384;SDS011;53426;55.872;37.462;2023-05-07T05:51:11;2.65;;;2.00;;
66384;SDS011;53426;55.872;37.462;2023-05-07T05:53:37;5.30;;;1.67;;
66384;SDS011;53426;55.872;37.462;2023-05-07T05:56:06;5.20;;;1.70;;
66384;SDS011;53426;55.872;37.462;2023-05-07T05:58:36;4.65;;;1.73;;
66384;SDS011;53426;55.872;37.462;2023-05-07T06:01:05;2.05;;;1.80;;
66384;SDS011;53426;55.872;37.462;2023-05-07T06:03:31;2.83;;;1.80;;
66384;SDS011;53426;55.872;37.462;2023-05-07T06:06:01;2.67;;;1.50;;
66384;SDS011;53426;55.872;37.462;2023-05-07T06:08:29;1.80;;;1.50;;
66384;SDS011;53426;55.872;37.462;2023-05-07T06:10:56;3.45;;;1.45;;
66384;SDS011;53426;55.872;37.462;2023-05-07T06:13:23;1.75;;;1.40;;
66384;SDS011;53426;55.872;37.462;2023-05-07T06:15:58;1.30;;;1.20;;
66384;SDS011;53426;55.872;37.462;2023-05-07T06:18:24;1.52;;;1.27;;
66384;SDS011;53426;55.872;37.462;2023-05-07T06:20:53;1.30;;;1.20;;
66384;SDS011;53426;55.872;37.462;2023-05-07T06:23:24;2.60;;;1.20;;
66384;SDS011;53426;55.872;37.462;2023-05-07T06:25:50;6.00;;;1.50;;
66384;SDS011;53426;55.872;37.462;2023-05-07T06:28:18;4.05;;;1.20;;
66384;SDS011;53426;55.872;37.462;2023-05-07T06:30:44;3.17;;;1.23;;
66384;SDS011;53426;55.872;37.462;2023-05-07T06:33:10;1.08;;;1.08;;
66384;SDS011;53426;55.872;37.462;2023-05-07T06:35:36;1.48;;;1.15;;
66384;SDS011;53426;55.872;37.462;2023-05-07T06:38:02;3.38;;;1.20;;
66384;SDS011;53426;55.872;37.462;2023-05-07T06:40:37;3.50;;;1.23;;
66384;SDS011;53426;55.872;37.462;2023-05-07T06:43:04;1.33;;;1.00;;
66384;SDS011;53426;55.872;37.462;2023-05-07T06:45:53;1.50;;;1.40;;
66384;SDS011;53426;55.872;37.462;2023-05-07T06:48:20;1.10;;;1.10;;
66384;SDS011;53426;55.872;37.462;2023-05-07T06:50:53;2.72;;;1.40;;
66384;SDS011;53426;55.872;37.462;2023-05-07T06:53:22;2.08;;;1.35;;
66384;SDS011;53426;55.872;37.462;2023-05-07T06:55:48;1.83;;;1.50;;
66384;SDS011;53426;55.872;37.462;2023-05-07T07:01:43;1.63;;;1.33;;
66384;SDS011;53426;55.872;37.462;2023-05-07T07:04:10;8.15;;;1.77;;
66384;SDS011;53426;55.872;37.462;2023-05-07T07:06:39;3.25;;;1.20;;
66384;SDS011;53426;55.872;37.462;2023-05-07T07:09:09;2.15;;;1.40;;
66384;SDS011;53426;55.872;37.462;2023-05-07T07:11:39;1.30;;;1.20;;
66384;SDS011;53426;55.872;37.462;2023-05-07T07:14:09;1.30;;;1.20;;
66384;SDS011;53426;55.872;37.462;2023-05-07T07:16:43;1.63;;;1.30;;
66384;SDS011;53426;55.872;37.462;2023-05-07T07:19:13;3.20;;;1.33;;
66384;SDS011;53426;55.872;37.462;2023-05-07T07:21:41;1.50;;;1.20;;
66384;SDS011;53426;55.872;37.462;2023-05-07T07:24:09;2.78;;;1.23;;
66384;SDS011;53426;55.872;37.462;2023-05-07T07:26:38;1.15;;;1.00;;
66384;SDS011;53426;55.872;37.462;2023-05-07T07:29:06;10.38;;;1.30;;
66384;SDS011;53426;55.872;37.462;2023-05-07T07:31:32;6.32;;;1.10;;
66384;SDS011;53426;55.872;37.462;2023-05-07T07:33:58;2.30;;;2.03;;
66384;SDS011;53426;55.872;37.462;2023-05-07T07:36:24;2.03;;;1.40;;
66384;SDS011;53426;55.872;37.462;2023-05-07T07:38:52;10.18;;;1.83;;
66384;SDS011;53426;55.872;37.462;2023-05-07T07:41:19;1.88;;;1.38;;
66384;SDS011;53426;55.872;37.462;2023-05-07T07:43:46;1.40;;;1.10;;
66384;SDS011;53426;55.872;37.462;2023-05-07T07:46:12;1.85;;;1.40;;
66384;SDS011;53426;55.872;37.462;2023-05-07T07:48:39;1.48;;;1.38;;
66384;SDS011;53426;55.872;37.462;2023-05-07T07:51:05;1.30;;;1.20;;
66384;SDS011;53426;55.872;37.462;2023-05-07T07:53:43;1.20;;;1.10;;
66384;SDS011;53426;55.872;37.462;2023-05-07T07:59:49;1.20;;;1.00;;
66384;SDS011;53426;55.872;37.462;2023-05-07T08:02:16;1.60;;;1.35;;
66384;SDS011;53426;55.872;37.462;2023-05-07T08:04:46;1.20;;;1.20;;
66384;SDS011;53426;55.872;37.462;2023-05-07T08:07:24;1.30;;;1.10;;
66384;SDS011;53426;55.872;37.462;2023-05-07T08:09:59;3.90;;;0.95;;
66384;SDS011;53426;55.872;37.462;2023-05-07T08:12:26;1.02;;;1.00;;
66384;SDS011;53426;55.872;37.462;2023-05-07T08:14:52;1.10;;;1.10;;
66384;SDS011;53426;55.872;37.462;2023-05-07T08:17:18;1.30;;;1.20;;
66384;SDS011;53426;55.872;37.462;2023-05-07T08:19:48;1.40;;;1.30;;
66384;SDS011;53426;55.872;37.462;2023-05-07T08:22:15;0.98;;;0.98;;
66384;SDS011;53426;55.872;37.462;2023-05-07T08:24:44;1.02;;;1.00;;
66384;SDS011;53426;55.872;37.462;2023-05-07T08:27:11;0.90;;;0.90;;
66384;SDS011;53426;55.872;37.462;2023-05-07T08:32:35;1.05;;;1.05;;
66384;SDS011;53426;55.872;37.462;2023-05-07T08:35:01;2.05;;;1.15;;
66384;SDS011;53426;55.872;37.462;2023-05-07T08:37:30;1.35;;;1.25;;
66384;SDS011;53426;55.872;37.462;2023-05-07T08:39:56;1.27;;;1.17;;
66384;SDS011;53426;55.872;37.462;2023-05-07T08:42:29;1.38;;;1.30;;
66384;SDS011;53426;55.872;37.462;2023-05-07T08:44:57;1.10;;;1.10;;
66384;SDS011;53426;55.872;37.462;2023-05-07T08:47:32;1.52;;;1.40;;
66384;SDS011;53426;55.872;37.462;2023-05-07T08:50:07;1.88;;;1.23;;
66384;SDS011;53426;55.872;37.462;2023-05-07T08:52:35;1.85;;;1.40;;
66384;SDS011;53426;55.872;37.462;2023-05-07T08:55:08;1.95;;;1.40;;
66384;SDS011;53426;55.872;37.462;2023-05-07T08:57:35;2.42;;;1.20;;
66384;SDS011;53426;55.872;37.462;2023-05-07T09:00:03;1.58;;;1.00;;
66384;SDS011;53426;55.872;37.462;2023-05-07T09:02:37;1.10;;;1.05;;
66384;SDS011;53426;55.872;37.462;2023-05-07T09:05:08;1.27;;;1.17;;
66384;SDS011;53426;55.872;37.462;2023-05-07T09:07:43;1.58;;;1.10;;
66384;SDS011;53426;55.872;37.462;2023-05-07T09:10:20;1.30;;;1.20;;
66384;SDS011;53426;55.872;37.462;2023-05-07T09:12:54;2.20;;;1.38;;
66384;SDS011;53426;55.872;37.462;2023-05-07T09:15:23;2.28;;;1.55;;
66384;SDS011;53426;55.872;37.462;2023-05-07T09:17:49;1.45;;;1.30;;
66384;SDS011;53426;55.872;37.462;2023-05-07T09:20:16;1.30;;;1.30;;
66384;SDS011;53426;55.872;37.462;2023-05-07T09:22:43;3.38;;;1.10;;
66384;SDS011;53426;55.872;37.462;2023-05-07T09:25:13;1.02;;;1.02;;
66384;SDS011;53426;55.872;37.462;2023-05-07T09:27:41;4.43;;;1.25;;
66384;SDS011;53426;55.872;37.462;2023-05-07T09:30:08;6.28;;;1.20;;
66384;SDS011;53426;55.872;37.462;2023-05-07T09:32:37;1.55;;;1.35;;
66384;SDS011;53426;55.872;37.462;2023-05-07T09:35:14;1.60;;;1.45;;
66384;SDS011;53426;55.872;37.462;2023-05-07T09:37:44;2.10;;;1.60;;
66384;SDS011;53426;55.872;37.462;2023-05-07T09:40:26;2.35;;;1.30;;
66384;SDS011;53426;55.872;37.462;2023-05-07T09:42:55;3.38;;;1.67;;
66384;SDS011;53426;55.872;37.462;2023-05-07T09:45:24;2.25;;;1.50;;
66384;SDS011;53426;55.872;37.462;2023-05-07T09:47:55;1.27;;;1.20;;
66384;SDS011;53426;55.872;37.462;2023-05-07T09:50:29;1.98;;;1.60;;
66384;SDS011;53426;55.872;37.462;2023-05-07T09:53:03;1.77;;;1.50;;
66384;SDS011;53426;55.872;37.462;2023-05-07T09:55:38;3.85;;;1.40;;
66384;SDS011;53426;55.872;37.462;2023-05-07T09:58:05;1.50;;;1.40;;
66384;SDS011;53426;55.872;37.462;2023-05-07T10:00:47;1.30;;;1.20;;
66384;SDS011;53426;55.872;37.462;2023-05-07T10:03:21;1.42;;;1.15;;
66384;SDS011;53426;55.872;37.462;2023-05-07T10:06:03;1.90;;;1.20;;
66384;SDS011;53426;55.872;37.462;2023-05-07T10:08:31;1.05;;;1.05;;
66384;SDS011;53426;55.872;37.462;2023-05-07T10:11:03;4.20;;;1.38;;
66384;SDS011;53426;55.872;37.462;2023-05-07T10:13:33;1.40;;;1.30;;
66384;SDS011;53426;55.872;37.462;2023-05-07T10:16:04;1.50;;;1.40;;
66384;SDS011;53426;55.872;37.462;2023-05-07T10:18:37;2.55;;;1.30;;
66384;SDS011;53426;55.872;37.462;2023-05-07T10:21:20;1.45;;;1.40;;
66384;SDS011;53426;55.872;37.462;2023-05-07T10:23:51;1.63;;;1.52;;
66384;SDS011;53426;55.872;37.462;2023-05-07T10:26:34;1.58;;;1.48;;
66384;SDS011;53426;55.872;37.462;2023-05-07T10:29:07;2.05;;;1.48;;
66384;SDS011;53426;55.872;37.462;2023-05-07T10:35:26;1.40;;;1.30;;
66384;SDS011;53426;55.872;37.462;2023-05-07T10:37:58;4.72;;;1.40;;
66384;SDS011;53426;55.872;37.462;2023-05-07T10:40:27;1.70;;;1.27;;
66384;SDS011;53426;55.872;37.462;2023-05-07T10:42:58;1.48;;;1.23;;
66384;SDS011;53426;55.872;37.462;2023-05-07T10:45:37;3.90;;;1.30;;
66384;SDS011;53426;55.872;37.462;2023-05-07T10:48:14;3.17;;;1.30;;
66384;SDS011;53426;55.872;37.462;2023-05-07T10:50:46;1.95;;;1.48;;
66384;SDS011;53426;55.872;37.462;2023-05-07T10:58:44;5.30;;;1.52;;
66384;SDS011;53426;55.872;37.462;2023-05-07T11:02:09;2.60;;;1.92;;
66384;SDS011;53426;55.872;37.462;2023-05-07T11:08:08;2.22;;;1.48;;
66384;SDS011;53426;55.872;37.462;2023-05-07T11:10:49;12.48;;;2.70;;
66384;SDS011;53426;55.872;37.462;2023-05-07T11:14:02;2.35;;;1.58;;
66384;SDS011;53426;55.872;37.462;2023-05-07T11:16:46;3.28;;;1.42;;
66384;SDS011;53426;55.872;37.462;2023-05-07T11:25:25;1.65;;;1.55;;
66384;SDS011;53426;55.872;37.462;2023-05-07T11:28:07;3.30;;;1.70;;
66384;SDS011;53426;55.872;37.462;2023-05-07T11:30:38;2.47;;;1.75;;
66384;SDS011;53426;55.872;37.462;2023-05-07T11:33:08;8.20;;;1.98;;
66384;SDS011;53426;55.872;37.462;2023-05-07T11:35:36;1.55;;;1.45;;
66384;SDS011;53426;55.872;37.462;2023-05-07T11:38:06;4.00;;;1.52;;
66384;SDS011;53426;55.872;37.462;2023-05-07T11:44:13;1.80;;;1.70;;
66384;SDS011;53426;55.872;37.462;2023-05-07T11:46:42;2.00;;;1.67;;
66384;SDS011;53426;55.872;37.462;2023-05-07T11:49:11;1.50;;;1.40;;
66384;SDS011;53426;55.872;37.462;2023-05-07T11:51:40;1.40;;;1.30;;
66384;SDS011;53426;55.872;37.462;2023-05-07T11:54:08;1.63;;;1.52;;
66384;SDS011;53426;55.872;37.462;2023-05-07T11:56:36;1.88;;;1.33;;
66384;SDS011;53426;55.872;37.462;2023-05-07T12:07:14;1.27;;;1.27;;
66384;SDS011;53426;55.872;37.462;2023-05-07T12:09:44;1.90;;;1.60;;
66384;SDS011;53426;55.872;37.462;2023-05-07T12:12:11;7.35;;;2.40;;
66384;SDS011;53426;55.872;37.462;2023-05-07T12:14:39;8.82;;;1.70;;
66384;SDS011;53426;55.872;37.462;2023-05-07T12:17:05;3.90;;;1.77;;
66384;SDS011;53426;55.872;37.462;2023-05-07T12:19:33;1.88;;;1.75;;
66384;SDS011;53426;55.872;37.462;2023-05-07T12:22:01;2.75;;;1.95;;
66384;SDS011;53426;55.872;37.462;2023-05-07T12:24:44;2.25;;;1.50;;
66384;SDS011;53426;55.872;37.462;2023-05-07T12:27:11;2.25;;;1.98;;
66384;SDS011;53426;55.872;37.462;2023-05-07T12:29:36;2.50;;;1.50;;
66384;SDS011;53426;55.872;37.462;2023-05-07T12:32:06;1.88;;;1.77;;
66384;SDS011;53426;55.872;37.462;2023-05-07T12:34:41;2.17;;;1.55;;
66384;SDS011;53426;55.872;37.462;2023-05-07T12:37:10;1.50;;;1.50;;
66384;SDS011;53426;55.872;37.462;2023-05-07T12:42:35;3.50;;;1.88;;
66384;SDS011;53426;55.872;37.462;2023-05-07T12:45:12;4.88;;;1.88;;
66384;SDS011;53426;55.872;37.462;2023-05-07T12:47:38;1.80;;;1.70;;
66384;SDS011;53426;55.872;37.462;2023-05-07T12:50:05;2.22;;;1.80;;
66384;SDS011;53426;55.872;37.462;2023-05-07T12:52:32;1.80;;;1.70;;
66384;SDS011;53426;55.872;37.462;2023-05-07T12:55:06;3.80;;;1.80;;
66384;SDS011;53426;55.872;37.462;2023-05-07T12:57:39;3.60;;;1.33;;
66384;SDS011;53426;55.872;37.462;2023-05-07T13:00:08;2.05;;;1.55;;
66384;SDS011;53426;55.872;37.462;2023-05-07T13:02:38;2.30;;;1.90;;
66384;SDS011;53426;55.872;37.462;2023-05-07T13:05:05;1.80;;;1.67;;
66384;SDS011;53426;55.872;37.462;2023-05-07T13:07:32;2.05;;;1.80;;
66384;SDS011;53426;55.872;37.462;2023-05-07T13:09:58;4.70;;;2.17;;
66384;SDS011;53426;55.872;37.462;2023-05-07T13:12:25;5.85;;;1.90;;
66384;SDS011;53426;55.872;37.462;2023-05-07T13:14:51;2.03;;;1.60;;
66384;SDS011;53426;55.872;37.462;2023-05-07T13:17:17;4.50;;;1.80;;
66384;SDS011;53426;55.872;37.462;2023-05-07T13:19:44;3.28;;;1.90;;
66384;SDS011;53426;55.872;37.462;2023-05-07T13:25:01;1.90;;;1.80;;
66384;SDS011;53426;55.872;37.462;2023-05-07T13:27:29;11.68;;;1.70;;
66384;SDS011;53426;55.872;37.462;2023-05-07T13:29:56;3.15;;;2.00;;
66384;SDS011;53426;55.872;37.462;2023-05-07T13:32:26;2.20;;;2.00;;
66384;SDS011;53426;55.872;37.462;2023-05-07T13:34:52;2.35;;;2.00;;
66384;SDS011;53426;55.872;37.462;2023-05-07T13:37:18;5.55;;;1.77;;
66384;SDS011;53426;55.872;37.462;2023-05-07T13:39:47;6.18;;;2.10;;
66384;SDS011;53426;55.872;37.462;2023-05-07T13:42:13;2.10;;;2.00;;
66384;SDS011;53426;55.872;37.462;2023-05-07T13:44:39;2.45;;;2.17;;
66384;SDS011;53426;55.872;37.462;2023-05-07T13:47:05;4.65;;;2.00;;
66384;SDS011;53426;55.872;37.462;2023-05-07T13:49:34;1.50;;;1.40;;
66384;SDS011;53426;55.872;37.462;2023-05-07T13:51:59;5.60;;;1.73;;
66384;SDS011;53426;55.872;37.462;2023-05-07T13:54:31;1.60;;;1.50;;
66384;SDS011;53426;55.872;37.462;2023-05-07T13:56:58;2.67;;;2.03;;
66384;SDS011;53426;55.872;37.462;2023-05-07T13:59:24;8.43;;;2.20;;
66384;SDS011;53426;55.872;37.462;2023-05-07T14:01:50;5.78;;;1.98;;
66384;SDS011;53426;55.872;37.462;2023-05-07T14:04:16;7.15;;;2.20;;
66384;SDS011;53426;55.872;37.462;2023-05-07T14:06:43;1.83;;;1.73;;
66384;SDS011;53426;55.872;37.462;2023-05-07T14:09:09;4.72;;;1.85;;
66384;SDS011;53426;55.872;37.462;2023-05-07T14:11:37;4.97;;;2.28;;
66384;SDS011;53426;55.872;37.462;2023-05-07T14:14:05;2.45;;;2.22;;
66384;SDS011;53426;55.872;37.462;2023-05-07T14:16:32;5.00;;;2.13;;
66384;SDS011;53426;55.872;37.462;2023-05-07T14:18:58;1.90;;;1.80;;
66384;SDS011;53426;55.872;37.462;2023-05-07T14:27:22;3.65;;;1.63;;
66384;SDS011;53426;55.872;37.462;2023-05-07T14:29:56;3.35;;;1.80;;
66384;SDS011;53426;55.872;37.462;2023-05-07T14:32:21;1.88;;;1.73;;
66384;SDS011;53426;55.872;37.462;2023-05-07T14:34:47;2.20;;;1.95;;
66384;SDS011;53426;55.872;37.462;2023-05-07T14:37:16;5.35;;;2.85;;
66384;SDS011;53426;55.872;37.462;2023-05-07T14:39:45;6.35;;;2.10;;
66384;SDS011;53426;55.872;37.462;2023-05-07T14:42:11;3.85;;;2.00;;
66384;SDS011;53426;55.872;37.462;2023-05-07T14:47:32;4.97;;;2.22;;
66384;SDS011;53426;55.872;37.462;2023-05-07T14:50:02;4.70;;;2.20;;
66384;SDS011;53426;55.872;37.462;2023-05-07T14:52:29;4.85;;;2.40;;
66384;SDS011;53426;55.872;37.462;2023-05-07T14:54:56;3.35;;;1.77;;
66384;SDS011;53426;55.872;37.462;2023-05-07T14:57:22;1.92;;;1.70;;
66384;SDS011;53426;55.872;37.462;2023-05-07T14:59:48;1.90;;;1.80;;
66384;SDS011;53426;55.872;37.462;2023-05-07T15:02:14;9.43;;;2.28;;
66384;SDS011;53426;55.872;37.462;2023-05-07T15:04:40;11.73;;;2.55;;
66384;SDS011;53426;55.872;37.462;2023-05-07T15:07:16;1.98;;;1.88;;
66384;SDS011;53426;55.872;37.462;2023-05-07T15:09:46;3.63;;;1.90;;
66384;SDS011;53426;55.872;37.462;2023-05-07T15:12:13;2.50;;;1.95;;
66384;SDS011;53426;55.872;37.462;2023-05-07T15:14:39;2.83;;;2.15;;
66384;SDS011;53426;55.872;37.462;2023-05-07T15:17:13;5.57;;;2.10;;
66384;SDS011;53426;55.872;37.462;2023-05-07T15:19:40;1.73;;;1.63;;
66384;SDS011;53426;55.872;37.462;2023-05-07T15:22:06;1.75;;;1.65;;
66384;SDS011;53426;55.872;37.462;2023-05-07T15:24:31;4.53;;;2.08;;
66384;SDS011;53426;55.872;37.462;2023-05-07T15:26:58;2.50;;;2.22;;
66384;SDS011;53426;55.872;37.462;2023-05-07T15:29:33;3.38;;;1.92;;
66384;SDS011;53426;55.872;37.462;2023-05-07T15:32:00;4.70;;;2.00;;
66384;SDS011;53426;55.872;37.462;2023-05-07T15:34:26;3.80;;;2.40;;
66384;SDS011;53426;55.872;37.462;2023-05-07T15:39:50;4.13;;;2.35;;
66384;SDS011;53426;55.872;37.462;2023-05-07T15:42:34;2.35;;;2.15;;
66384;SDS011;53426;55.872;37.462;2023-05-07T15:45:04;4.63;;;2.25;;
66384;SDS011;53426;55.872;37.462;2023-05-07T15:47:32;4.75;;;1.90;;